createdAt,value
2019-02-22T00:01:19.397Z,31.63
2019-02-22T00:03:49.914Z,33.80
2019-02-22T00:06:20.476Z,30.60
2019-02-22T00:08:51.053Z,30.63
2019-02-22T00:11:21.603Z,30.47
2019-02-22T00:13:52.172Z,30.77
2019-02-22T00:16:22.800Z,32.93
2019-02-22T00:18:53.403Z,31.40
2019-02-22T00:21:23.907Z,31.80
2019-02-22T00:23:54.391Z,30.43
2019-02-22T00:26:24.893Z,32.27
2019-02-22T00:28:55.431Z,31.70
2019-02-22T00:31:25.958Z,29.97
2019-02-22T00:33:56.468Z,31.23
2019-02-22T00:36:27.014Z,32.77
2019-02-22T00:38:57.500Z,32.37
2019-02-22T00:41:27.970Z,32.60
2019-02-22T00:43:58.437Z,31.00
2019-02-22T00:46:28.932Z,30.03
2019-02-22T00:48:59.400Z,31.90
2019-02-22T00:51:29.898Z,29.57
2019-02-22T00:54:00.377Z,30.00
2019-02-22T00:56:30.896Z,30.87
2019-02-22T00:59:01.429Z,30.43
2019-02-22T01:01:31.874Z,30.63
2019-02-22T01:04:02.453Z,30.63
2019-02-22T01:06:32.927Z,32.17
2019-02-22T01:09:04.301Z,32.13
2019-02-22T01:11:34.799Z,32.20
2019-02-22T01:14:05.238Z,31.63
2019-02-22T01:16:35.711Z,31.17
2019-02-22T01:19:06.197Z,31.40
2019-02-22T01:21:36.729Z,35.90
2019-02-22T01:24:07.233Z,33.50
2019-02-22T01:26:37.738Z,34.77
2019-02-22T01:29:08.173Z,34.83
2019-02-22T01:31:38.677Z,35.27
2019-02-22T01:34:09.227Z,34.07
2019-02-22T01:36:39.809Z,35.83
2019-02-22T01:39:10.262Z,31.83
2019-02-22T01:41:40.806Z,31.53
2019-02-22T01:44:24.185Z,34.40
2019-02-22T01:46:54.647Z,34.20
2019-02-22T01:49:25.140Z,33.73
2019-02-22T01:51:55.616Z,33.17
2019-02-22T01:54:26.179Z,32.30
2019-02-22T01:56:56.668Z,32.07
2019-02-22T01:59:27.142Z,31.73
2019-02-22T02:01:57.670Z,31.43
2019-02-22T02:04:28.162Z,30.57
2019-02-22T02:06:58.712Z,32.03
2019-02-22T02:09:29.169Z,29.23
2019-02-22T02:12:01.871Z,32.07
2019-02-22T02:14:31.848Z,33.17
2019-02-22T02:17:02.356Z,33.93
2019-02-22T02:19:32.871Z,31.30
2019-02-22T02:22:03.363Z,29.57
2019-02-22T02:24:33.863Z,31.57
2019-02-22T02:27:04.457Z,34.63
2019-02-22T02:29:34.956Z,28.53
2019-02-22T02:32:05.447Z,27.87
2019-02-22T02:34:35.952Z,30.53
2019-02-22T02:37:06.492Z,29.90
2019-02-22T02:39:37.009Z,29.13
2019-02-22T02:42:07.493Z,32.30
2019-02-22T02:44:38.839Z,30.15
2019-02-22T02:47:09.345Z,28.23
2019-02-22T02:49:39.843Z,28.13
2019-02-22T02:52:10.324Z,28.20
2019-02-22T02:54:40.816Z,30.43
2019-02-22T02:57:11.349Z,28.17
2019-02-22T02:59:41.854Z,29.90
2019-02-22T03:02:21.825Z,30.90
2019-02-22T03:04:52.322Z,28.57
2019-02-22T03:07:42.316Z,27.10
2019-02-22T03:10:12.888Z,30.07
2019-02-22T03:12:43.362Z,28.43
2019-02-22T03:15:15.868Z,28.97
2019-02-22T03:17:46.362Z,28.43
2019-02-22T03:20:16.864Z,29.50
2019-02-22T03:22:47.365Z,26.93
2019-02-22T03:25:18.101Z,31.70
2019-02-22T03:27:48.562Z,28.70
2019-02-22T03:30:19.118Z,29.23
2019-02-22T03:32:49.591Z,30.80
2019-02-22T03:35:20.099Z,31.83
2019-02-22T03:37:50.608Z,28.50
2019-02-22T03:40:21.142Z,28.20
2019-02-22T03:42:51.755Z,30.97
2019-02-22T03:45:22.244Z,30.47
2019-02-22T03:47:52.694Z,27.80
2019-02-22T03:50:23.171Z,32.50
2019-02-22T03:53:03.095Z,31.13
2019-02-22T03:55:33.589Z,27.93
2019-02-22T03:58:04.047Z,28.83
2019-02-22T04:00:34.542Z,29.20
2019-02-22T04:03:05.026Z,26.10
2019-02-22T04:05:35.535Z,28.13
2019-02-22T04:08:07.289Z,29.43
2019-02-22T04:10:37.873Z,27.63
2019-02-22T04:13:08.358Z,27.47
2019-02-22T04:15:38.951Z,26.47
2019-02-22T04:18:09.446Z,26.90
2019-02-22T04:20:39.956Z,26.83
2019-02-22T04:23:10.464Z,30.53
2019-02-22T04:25:40.968Z,27.30
2019-02-22T04:28:11.440Z,25.67
2019-02-22T04:30:41.944Z,27.50
2019-02-22T04:33:12.409Z,25.67
2019-02-22T04:35:42.863Z,28.20
2019-02-22T04:38:13.309Z,25.83
2019-02-22T04:40:43.849Z,25.77
2019-02-22T04:43:14.315Z,29.20
2019-02-22T04:45:44.816Z,25.57
2019-02-22T04:48:15.375Z,25.07
2019-02-22T04:50:45.967Z,27.07
2019-02-22T04:53:16.480Z,26.70
2019-02-22T04:55:47.082Z,25.93
2019-02-22T04:58:17.583Z,25.83
2019-02-22T05:00:48.056Z,24.57
2019-02-22T05:03:18.589Z,25.17
2019-02-22T05:05:49.038Z,25.97
2019-02-22T05:08:19.597Z,25.20
2019-02-22T05:10:50.179Z,28.67
2019-02-22T05:13:20.650Z,26.93
2019-02-22T05:15:51.143Z,25.83
2019-02-22T05:18:21.858Z,27.77
2019-02-22T05:20:52.372Z,28.83
2019-02-22T05:23:22.953Z,25.00
2019-02-22T05:25:53.597Z,25.63
2019-02-22T05:28:24.450Z,28.07
2019-02-22T05:30:55.028Z,23.17
2019-02-22T05:33:25.791Z,24.57
2019-02-22T05:35:56.352Z,25.13
2019-02-22T05:38:26.938Z,25.57
2019-02-22T05:40:57.518Z,23.80
2019-02-22T05:43:28.004Z,22.17
2019-02-22T05:45:58.650Z,24.77
2019-02-22T05:48:29.327Z,23.80
2019-02-22T05:50:59.839Z,24.97
2019-02-22T05:53:32.743Z,26.33
2019-02-22T05:56:03.394Z,22.17
2019-02-22T05:58:33.944Z,24.70
2019-02-22T06:01:06.783Z,24.30
2019-02-22T06:03:38.154Z,26.07
2019-02-22T06:06:08.669Z,27.70
2019-02-22T06:08:39.197Z,25.40
2019-02-22T06:11:09.762Z,24.97
2019-02-22T06:13:40.229Z,26.13
2019-02-22T06:16:10.753Z,22.23
2019-02-22T06:18:41.303Z,25.47
2019-02-22T06:21:11.795Z,23.13
2019-02-22T06:23:42.263Z,25.63
2019-02-22T06:26:12.781Z,26.40
2019-02-22T06:28:43.248Z,23.67
2019-02-22T06:31:13.751Z,26.57
2019-02-22T06:33:44.231Z,25.77
2019-02-22T06:36:14.682Z,27.57
2019-02-22T06:38:46.697Z,25.73
2019-02-22T06:41:17.249Z,29.03
2019-02-22T06:43:48.041Z,27.33
2019-02-22T06:46:18.543Z,29.73
2019-02-22T06:48:49.024Z,25.93
2019-02-22T06:51:19.500Z,32.03
2019-02-22T06:53:50.013Z,33.07
2019-02-22T06:56:20.515Z,34.97
2019-02-22T06:58:51.065Z,34.20
2019-02-22T07:01:21.620Z,26.13
2019-02-22T07:03:52.185Z,26.30
2019-02-22T07:06:22.710Z,24.33
2019-02-22T07:08:53.224Z,26.67
2019-02-22T07:11:33.395Z,24.83
2019-02-22T07:14:03.927Z,21.93
2019-02-22T07:16:34.417Z,27.37
2019-02-22T07:19:04.916Z,25.40
2019-02-22T07:21:49.108Z,23.53
2019-02-22T07:24:07.569Z,24.57
2019-02-22T07:26:38.066Z,25.50
2019-02-22T07:29:08.545Z,22.37
2019-02-22T07:31:39.103Z,22.00
2019-02-22T07:34:09.593Z,22.47
2019-02-22T07:36:40.047Z,26.10
2019-02-22T07:39:10.558Z,23.13
2019-02-22T07:41:41.013Z,25.23
2019-02-22T07:44:11.549Z,24.47
2019-02-22T07:46:42.029Z,23.00
2019-02-22T07:49:15.499Z,23.37
2019-02-22T07:51:46.018Z,24.40
2019-02-22T07:54:16.495Z,22.10
2019-02-22T07:56:46.963Z,21.53
2019-02-22T07:59:17.441Z,23.23
2019-02-22T08:01:48.308Z,21.00
2019-02-22T08:04:18.841Z,24.00
2019-02-22T08:06:49.366Z,21.40
2019-02-22T08:09:19.869Z,23.83
2019-02-22T08:11:50.361Z,21.97
2019-02-22T08:14:20.823Z,25.07
2019-02-22T08:16:51.329Z,22.67
2019-02-22T08:19:21.806Z,25.70
2019-02-22T08:21:52.297Z,24.97
2019-02-22T08:24:25.742Z,29.57
2019-02-22T08:26:55.173Z,23.50
2019-02-22T08:29:25.811Z,24.50
2019-02-22T08:31:56.311Z,24.30
2019-02-22T08:34:27.637Z,26.37
2019-02-22T08:36:58.092Z,29.63
2019-02-22T08:39:28.601Z,26.53
2019-02-22T08:41:59.120Z,30.23
2019-02-22T08:44:29.586Z,29.47
2019-02-22T08:47:00.084Z,31.53
2019-02-22T08:49:30.555Z,29.70
2019-02-22T08:52:01.085Z,27.27
2019-02-22T08:54:31.593Z,27.37
2019-02-22T08:57:02.142Z,25.50
2019-02-22T08:59:32.616Z,26.57
2019-02-22T09:02:03.105Z,32.10
2019-02-22T09:04:33.612Z,28.20
2019-02-22T09:07:05.777Z,29.77
2019-02-22T09:09:36.332Z,28.43
2019-02-22T09:12:06.829Z,30.87
2019-02-22T09:14:37.368Z,31.20
2019-02-22T09:17:07.838Z,27.10
2019-02-22T09:19:38.446Z,33.10
2019-02-22T09:22:08.925Z,30.40
2019-02-22T09:24:39.415Z,29.70
2019-02-22T09:27:09.888Z,32.00
2019-02-22T09:29:40.446Z,29.83
2019-02-22T09:32:10.958Z,33.20
2019-02-22T09:34:41.460Z,32.73
2019-02-22T09:37:11.923Z,30.57
2019-02-22T09:39:42.392Z,29.10
2019-02-22T09:42:12.870Z,29.27
2019-02-22T09:44:43.397Z,28.13
2019-02-22T09:47:13.899Z,31.23
2019-02-22T09:49:44.396Z,26.47
2019-02-22T09:52:14.871Z,27.27
2019-02-22T09:54:45.366Z,25.50
2019-02-22T09:57:15.886Z,26.67
2019-02-22T09:59:46.363Z,24.27
2019-02-22T10:02:16.862Z,34.13
2019-02-22T10:04:55.072Z,33.93
2019-02-22T10:07:19.631Z,34.43
2019-02-22T10:09:50.152Z,29.03
2019-02-22T10:12:20.646Z,31.37
2019-02-22T10:14:51.164Z,33.70
2019-02-22T10:17:21.764Z,34.30
2019-02-22T10:19:52.258Z,34.33
2019-02-22T10:22:22.867Z,28.93
2019-02-22T10:24:53.470Z,33.77
2019-02-22T10:27:23.978Z,28.60
2019-02-22T10:29:54.594Z,29.37
2019-02-22T10:32:25.105Z,25.03
2019-02-22T10:34:55.672Z,28.07
2019-02-22T10:37:26.164Z,27.33
2019-02-22T10:39:56.682Z,26.73
2019-02-22T10:42:27.190Z,30.47
2019-02-22T10:44:57.679Z,27.13
2019-02-22T10:47:28.187Z,27.30
2019-02-22T10:49:58.675Z,28.07
2019-02-22T10:52:29.168Z,26.73
2019-02-22T10:54:59.708Z,22.03
2019-02-22T10:57:30.230Z,27.87
2019-02-22T11:00:00.735Z,26.23
2019-02-22T11:02:31.505Z,26.97
2019-02-22T11:05:02.084Z,19.90
2019-02-22T11:07:32.602Z,26.30
2019-02-22T11:10:03.119Z,25.17
2019-02-22T11:12:33.635Z,24.53
2019-02-22T11:15:04.286Z,23.07
2019-02-22T11:17:34.796Z,24.73
2019-02-22T11:20:05.871Z,23.20
2019-02-22T11:22:36.372Z,20.20
2019-02-22T11:25:09.854Z,20.43
2019-02-22T11:27:40.388Z,20.63
2019-02-22T11:30:12.592Z,21.30
2019-02-22T11:32:43.192Z,21.63
2019-02-22T11:35:13.712Z,23.17
2019-02-22T11:37:44.280Z,23.07
2019-02-22T11:40:14.775Z,22.20
2019-02-22T11:42:45.402Z,24.17
2019-02-22T11:45:16.169Z,24.37
2019-02-22T11:47:46.673Z,22.90
2019-02-22T11:50:17.235Z,24.27
2019-02-22T11:52:48.135Z,26.50
2019-02-22T11:55:18.813Z,24.80
2019-02-22T11:57:49.362Z,28.17
2019-02-22T12:00:23.025Z,25.47
2019-02-22T12:02:53.657Z,27.10
2019-02-22T12:05:24.228Z,27.60
2019-02-22T12:07:55.346Z,23.50
2019-02-22T12:10:25.894Z,29.63
2019-02-22T12:12:56.433Z,29.37
2019-02-22T12:15:27.039Z,25.77
2019-02-22T12:17:57.495Z,24.80
2019-02-22T12:20:28.062Z,26.10
2019-02-22T12:22:58.593Z,27.60
2019-02-22T12:25:29.296Z,31.83
2019-02-22T12:27:59.762Z,34.40
2019-02-22T12:30:30.343Z,31.83
2019-02-22T12:33:00.922Z,28.37
2019-02-22T12:35:31.420Z,26.00
2019-02-22T12:38:01.903Z,25.33
2019-02-22T12:40:32.415Z,33.50
2019-02-22T12:43:02.925Z,29.27
2019-02-22T12:45:33.518Z,27.80
2019-02-22T12:48:04.024Z,27.73
2019-02-22T12:50:34.624Z,31.00
2019-02-22T12:53:05.164Z,31.07
2019-02-22T12:55:35.704Z,26.30
2019-02-22T12:58:06.181Z,27.00
2019-02-22T13:00:36.696Z,28.23
2019-02-22T13:03:07.348Z,26.70
2019-02-22T13:05:37.901Z,24.70
2019-02-22T13:08:08.421Z,27.67
2019-02-22T13:10:38.928Z,22.37
2019-02-22T13:13:09.439Z,23.33
2019-02-22T13:15:39.977Z,22.77
2019-02-22T13:18:10.495Z,22.43
2019-02-22T13:20:41.036Z,24.30
2019-02-22T13:23:11.593Z,23.43
2019-02-22T13:25:42.142Z,22.77
2019-02-22T13:28:12.669Z,20.83
2019-02-22T13:30:43.267Z,21.63
2019-02-22T13:33:13.993Z,18.43
2019-02-22T13:35:44.574Z,19.13
2019-02-22T13:38:15.096Z,26.03
2019-02-22T13:40:45.676Z,23.93
2019-02-22T13:43:16.260Z,21.73
2019-02-22T13:45:46.840Z,24.77
2019-02-22T13:48:17.457Z,23.33
2019-02-22T13:50:48.078Z,26.73
2019-02-22T13:53:18.726Z,22.23
2019-02-22T13:55:49.266Z,23.67
2019-02-22T13:58:19.843Z,22.03
2019-02-22T14:00:50.378Z,19.60
2019-02-22T14:03:20.930Z,18.63
2019-02-22T14:05:51.644Z,15.33
2019-02-22T14:08:22.231Z,14.03
2019-02-22T14:10:52.835Z,13.25
2019-02-22T14:13:23.729Z,16.63
2019-02-22T14:15:54.597Z,15.93
2019-02-22T14:18:25.118Z,22.07
2019-02-22T14:20:55.840Z,21.30
2019-02-22T14:23:26.430Z,23.20
2019-02-22T14:25:56.983Z,20.47
2019-02-22T14:28:27.509Z,24.27
2019-02-22T14:30:58.116Z,30.82
2019-02-22T14:33:28.683Z,27.27
2019-02-22T14:35:59.257Z,28.17
2019-02-22T14:38:29.789Z,21.30
2019-02-22T14:41:00.445Z,25.47
2019-02-22T14:43:31.315Z,24.87
2019-02-22T14:46:01.874Z,28.47
2019-02-22T14:48:32.364Z,23.43
2019-02-22T14:51:03.052Z,21.77
2019-02-22T14:53:33.635Z,28.03
2019-02-22T14:56:04.242Z,24.80
2019-02-22T14:58:34.733Z,25.10
2019-02-22T15:01:05.484Z,23.00
2019-02-22T15:03:36.111Z,25.13
2019-02-22T15:06:07.670Z,24.90
2019-02-22T15:08:38.264Z,25.87
2019-02-22T15:11:08.948Z,28.07
2019-02-22T15:13:39.518Z,27.53
2019-02-22T15:16:25.739Z,25.73
2019-02-22T15:18:56.366Z,24.30
2019-02-22T15:21:26.921Z,25.93
2019-02-22T15:23:57.427Z,28.13
2019-02-22T15:26:27.981Z,28.70
2019-02-22T15:28:58.549Z,32.47
2019-02-22T15:31:36.068Z,30.70
2019-02-22T15:34:01.419Z,29.30
2019-02-22T15:36:32.092Z,30.80
2019-02-22T15:39:02.688Z,28.90
2019-02-22T15:41:33.295Z,29.17
2019-02-22T15:44:05.750Z,33.67
2019-02-22T15:46:37.178Z,29.80
2019-02-22T15:49:07.940Z,28.57
2019-02-22T15:51:38.626Z,34.67
2019-02-22T15:54:09.304Z,29.80
2019-02-22T15:56:39.860Z,26.23
2019-02-22T15:59:10.527Z,27.80
2019-02-22T16:01:41.170Z,28.67
2019-02-22T16:04:18.269Z,27.20
2019-02-22T16:06:48.827Z,31.67
2019-02-22T16:09:19.473Z,25.20
2019-02-22T16:11:52.334Z,25.47
2019-02-22T16:14:22.481Z,22.43
2019-02-22T16:16:53.048Z,21.83
2019-02-22T16:19:25.898Z,22.47
2019-02-22T16:21:56.447Z,27.03
2019-02-22T16:24:27.083Z,24.33
2019-02-22T16:27:03.800Z,29.37
2019-02-22T16:29:37.108Z,29.30
2019-02-22T16:32:07.779Z,28.33
2019-02-22T16:34:43.533Z,24.57
2019-02-22T16:37:12.424Z,26.27
2019-02-22T16:39:43.164Z,30.47
2019-02-22T16:42:13.780Z,30.93
2019-02-22T16:44:44.416Z,27.50
2019-02-22T16:47:15.271Z,27.77
2019-02-22T16:49:45.847Z,26.10
2019-02-22T16:52:16.623Z,28.73
2019-02-22T16:54:47.142Z,30.27
2019-02-22T16:57:17.802Z,28.47
2019-02-22T16:59:48.372Z,25.60
2019-02-22T17:02:18.938Z,27.67
2019-02-22T17:04:49.561Z,28.17
2019-02-22T17:07:21.067Z,26.77
2019-02-22T17:09:54.678Z,26.70
2019-02-22T17:12:25.222Z,26.97
2019-02-22T17:14:55.928Z,22.95
2019-02-22T17:17:26.476Z,23.40
2019-02-22T17:19:57.032Z,28.57
2019-02-22T17:22:27.585Z,30.10
2019-02-22T17:24:58.110Z,29.70
2019-02-22T17:27:30.040Z,25.27
2019-02-22T17:30:00.824Z,22.50
2019-02-22T17:32:33.954Z,28.80
2019-02-22T17:35:04.757Z,24.17
2019-02-22T17:37:35.308Z,27.07
2019-02-22T17:40:08.012Z,24.80
2019-02-22T17:42:38.691Z,27.47
2019-02-22T17:45:09.337Z,30.97
2019-02-22T17:47:39.860Z,25.53
2019-02-22T17:50:10.784Z,24.77
2019-02-22T17:52:41.305Z,29.73
2019-02-22T17:55:15.593Z,28.77
2019-02-22T17:57:46.046Z,30.23
2019-02-22T18:00:18.717Z,32.13
2019-02-22T18:02:49.255Z,28.93
2019-02-22T18:05:19.781Z,29.53
2019-02-22T18:07:50.323Z,30.87
2019-02-22T18:10:20.893Z,28.73
2019-02-22T18:12:51.577Z,26.53
2019-02-22T18:15:22.181Z,30.03
2019-02-22T18:17:53.011Z,27.77
2019-02-22T18:20:23.665Z,26.67
2019-02-22T18:22:54.203Z,27.37
2019-02-22T18:25:25.625Z,28.43
2019-02-22T18:27:56.143Z,26.90
2019-02-22T18:30:26.808Z,24.33
2019-02-22T18:32:57.413Z,24.43
2019-02-22T18:35:27.936Z,32.38
2019-02-22T18:37:58.491Z,30.43
2019-02-22T18:40:29.042Z,30.37
2019-02-22T18:42:59.642Z,27.20
2019-02-22T18:45:30.254Z,23.33
2019-02-22T18:48:00.794Z,28.47
2019-02-22T18:50:31.388Z,26.53
2019-02-22T18:53:01.906Z,23.90
2019-02-22T18:55:32.541Z,26.70
2019-02-22T18:58:03.057Z,27.03
2019-02-22T19:00:33.636Z,26.10
2019-02-22T19:03:04.141Z,26.23
2019-02-22T19:05:34.655Z,21.17
2019-02-22T19:08:05.412Z,26.97
2019-02-22T19:10:35.937Z,19.43
2019-02-22T19:13:06.555Z,23.53
2019-02-22T19:15:37.101Z,28.17
2019-02-22T19:18:07.607Z,27.87
2019-02-22T19:20:38.175Z,25.87
2019-02-22T19:23:08.679Z,23.97
2019-02-22T19:25:39.244Z,21.20
2019-02-22T19:28:09.767Z,21.00
2019-02-22T19:30:40.353Z,19.50
2019-02-22T19:33:13.201Z,21.10
2019-02-22T19:35:43.647Z,17.43
2019-02-22T19:38:14.204Z,18.40
2019-02-22T19:40:44.726Z,16.20
2019-02-22T19:43:15.291Z,21.27
2019-02-22T19:45:45.893Z,14.30
2019-02-22T19:48:16.419Z,18.60
2019-02-22T19:50:46.945Z,15.80
2019-02-22T19:53:17.581Z,17.93
2019-02-22T19:55:48.124Z,13.93
2019-02-22T19:58:18.727Z,15.90
2019-02-22T20:00:49.222Z,12.40
2019-02-22T20:03:19.769Z,14.63
2019-02-22T20:05:50.302Z,13.53
2019-02-22T20:08:20.823Z,18.73
2019-02-22T20:10:51.578Z,13.67
2019-02-22T20:13:22.188Z,12.60
2019-02-22T20:15:54.754Z,12.03
2019-02-22T20:18:25.373Z,10.33
2019-02-22T20:20:55.895Z,11.23
2019-02-22T20:23:26.505Z,13.13
2019-02-22T20:25:57.025Z,11.23
2019-02-22T20:28:27.542Z,9.90
2019-02-22T20:30:58.071Z,11.23
2019-02-22T20:33:28.601Z,11.27
2019-02-22T20:35:59.334Z,11.20
2019-02-22T20:38:29.902Z,11.83
2019-02-22T20:41:02.453Z,11.07
2019-02-22T20:43:32.966Z,12.43
2019-02-22T20:46:03.548Z,11.90
2019-02-22T20:48:34.069Z,19.70
2019-02-22T20:51:04.649Z,12.87
2019-02-22T20:53:35.239Z,12.87
2019-02-22T20:56:05.814Z,13.50
2019-02-22T20:58:36.362Z,15.20
2019-02-22T21:01:14.502Z,11.20
2019-02-22T21:03:39.222Z,13.30
2019-02-22T21:06:09.769Z,13.53
2019-02-22T21:08:40.259Z,16.17
2019-02-22T21:11:10.762Z,13.60
2019-02-22T21:13:41.286Z,12.30
2019-02-22T21:16:11.834Z,13.30
2019-02-22T21:18:42.347Z,14.83
2019-02-22T21:21:12.991Z,14.53
2019-02-22T21:23:43.570Z,14.80
2019-02-22T21:26:14.133Z,13.90
2019-02-22T21:28:44.720Z,14.43
2019-02-22T21:31:15.198Z,15.17
2019-02-22T21:33:48.400Z,13.33
2019-02-22T21:36:18.919Z,14.30
2019-02-22T21:38:49.502Z,13.20
2019-02-22T21:41:20.116Z,15.37
2019-02-22T21:43:50.753Z,14.70
2019-02-22T21:46:23.690Z,15.80
2019-02-22T21:48:55.795Z,14.33
2019-02-22T21:51:26.344Z,13.10
2019-02-22T21:53:56.950Z,15.33
2019-02-22T21:56:27.507Z,15.93
2019-02-22T21:58:58.017Z,16.07
2019-02-22T22:01:28.623Z,15.70
2019-02-22T22:03:59.149Z,14.93
2019-02-22T22:06:29.696Z,15.77
2019-02-22T22:09:01.208Z,14.85
2019-02-22T22:11:31.740Z,15.03
2019-02-22T22:14:02.273Z,16.40
2019-02-22T22:16:32.874Z,14.57
2019-02-22T22:19:03.414Z,13.73
2019-02-22T22:21:33.931Z,13.10
2019-02-22T22:24:04.480Z,15.10
2019-02-22T22:26:35.091Z,14.40
2019-02-22T22:29:05.663Z,14.17
2019-02-22T22:31:36.198Z,17.17
2019-02-22T22:34:06.736Z,18.07
2019-02-22T22:36:37.377Z,18.67
2019-02-22T22:39:08.603Z,15.83
2019-02-22T22:41:39.135Z,16.67
2019-02-22T22:44:09.730Z,18.63
2019-02-22T22:46:40.296Z,16.37
2019-02-22T22:49:10.832Z,14.93
2019-02-22T22:51:41.355Z,17.30
2019-02-22T22:54:11.997Z,20.80
2019-02-22T22:56:42.566Z,18.77
2019-02-22T22:59:13.079Z,18.83
2019-02-22T23:01:43.794Z,16.93
2019-02-22T23:04:14.372Z,19.20
2019-02-22T23:06:44.919Z,19.23
2019-02-22T23:09:18.102Z,20.20
2019-02-22T23:11:48.631Z,16.43
2019-02-22T23:14:19.135Z,17.07
2019-02-22T23:16:49.773Z,17.67
2019-02-22T23:19:20.358Z,18.27
2019-02-22T23:21:50.911Z,17.53
2019-02-22T23:24:21.345Z,19.60
2019-02-22T23:26:51.890Z,18.20
2019-02-22T23:29:22.469Z,18.37
2019-02-22T23:31:53.035Z,19.83
2019-02-22T23:34:23.646Z,24.20
2019-02-22T23:36:54.198Z,15.70
2019-02-22T23:39:24.835Z,18.77
2019-02-22T23:41:55.512Z,22.73
2019-02-22T23:44:26.038Z,16.67
2019-02-22T23:46:56.576Z,18.83
2019-02-22T23:49:27.207Z,20.13
2019-02-22T23:51:57.750Z,18.20
2019-02-22T23:54:28.280Z,20.03
2019-02-22T23:56:58.838Z,21.73
2019-02-22T23:59:29.370Z,21.97
